Time;durP1;ratioP1;P1;durP2;ratioP2;P2;SDS_P1;SDS_P2;PMS_P1;PMS_P2;Temp;Humidity;BMP_temperature;BMP_pressure;BME280_temperature;BME280_humidity;BME280_pressure;Samples;Min_cycle;Max_cycle;Signal;HPM_P1;HPM_P2
2022/12/18 00:01:20;;;;;;;94.07;46.08;;;;;;;-3.80;100.00;102732.44;10376986;28;20060;-70
2022/12/18 00:06:21;;;;;;;111.53;52.63;;;;;;;-3.72;100.00;102748.91;10379059;28;20087;-70
2022/12/18 00:11:23;;;;;;;78.43;39.30;;;;;;;-3.67;100.00;102754.00;10376836;28;20342;-70
2022/12/18 00:16:24;;;;;;;82.45;48.72;;;;;;;-3.69;100.00;102755.88;10391730;28;20367;-70
2022/12/18 00:21:24;;;;;;;116.45;50.33;;;;;;;-3.66;100.00;102761.03;10375660;28;20069;-70
2022/12/18 00:26:27;;;;;;;118.93;54.25;;;;;;;-3.62;100.00;102750.25;10376140;28;20424;-70
2022/12/18 00:31:27;;;;;;;98.28;45.33;;;;;;;-3.69;100.00;102747.91;10376540;28;20099;-70
2022/12/18 00:36:33;;;;;;;85.18;38.97;;;;;;;-3.73;100.00;102747.19;10376612;28;20177;-70
2022/12/18 00:46:52;;;;;;;87.35;44.95;;;;;;;-4.05;100.00;102761.63;10374405;28;20041;-70
2022/12/18 00:51:55;;;;;;;68.65;36.10;;;;;;;-4.24;100.00;102756.16;10375861;28;20038;-70
2022/12/18 00:56:56;;;;;;;79.22;39.78;;;;;;;-4.29;100.00;102769.53;10375725;28;20044;-71
2022/12/18 01:01:56;;;;;;;71.43;38.88;;;;;;;-4.42;100.00;102767.41;10375116;28;20153;-70
2022/12/18 01:06:57;;;;;;;73.38;38.30;;;;;;;-4.54;100.00;102764.25;10375992;28;20069;-70
2022/12/18 01:11:57;;;;;;;86.65;40.50;;;;;;;-4.63;100.00;102763.72;10373998;28;20462;-70
2022/12/18 01:16:58;;;;;;;67.22;39.65;;;;;;;-4.68;100.00;102766.53;10377359;28;20077;-70
2022/12/18 01:21:58;;;;;;;86.43;36.65;;;;;;;-4.72;100.00;102770.22;10376002;28;20061;-71
2022/12/18 01:26:59;;;;;;;67.40;35.47;;;;;;;-4.64;100.00;102764.66;10375077;28;20034;-71
2022/12/18 01:31:59;;;;;;;82.70;38.97;;;;;;;-4.42;100.00;102772.69;10374705;28;20056;-70
2022/12/18 01:37:02;;;;;;;79.72;39.00;;;;;;;-4.40;100.00;102765.53;10375382;28;20128;-70
2022/12/18 01:42:03;;;;;;;74.88;40.20;;;;;;;-4.40;100.00;102777.00;10375746;28;20045;-70
2022/12/18 01:47:03;;;;;;;101.20;46.90;;;;;;;-4.35;100.00;102787.41;10382796;28;20389;-71
2022/12/18 01:52:03;;;;;;;74.00;33.38;;;;;;;-4.29;100.00;102796.00;10385079;28;20489;-71
2022/12/18 01:57:04;;;;;;;56.45;29.40;;;;;;;-4.24;100.00;102803.78;10366046;28;20042;-71
2022/12/18 02:02:04;;;;;;;92.93;45.10;;;;;;;-4.27;100.00;102803.88;10382336;28;20042;-71
2022/12/18 02:07:40;;;;;;;85.18;41.97;;;;;;;-4.28;100.00;102797.72;10380423;28;20464;-70
2022/12/18 02:12:57;;;;;;;53.90;26.63;;;;;;;-4.30;100.00;102796.91;10377473;28;20482;-71
2022/12/18 02:18:01;;;;;;;102.20;43.63;;;;;;;-4.40;100.00;102792.88;10397643;28;20127;-70
2022/12/18 02:23:06;;;;;;;94.47;44.33;;;;;;;-4.52;100.00;102794.16;10366915;28;20056;-71
2022/12/18 02:28:08;;;;;;;91.65;43.63;;;;;;;-4.68;100.00;102792.97;10381347;28;20018;-71
2022/12/18 02:33:09;;;;;;;81.63;35.85;;;;;;;-4.84;100.00;102791.78;10381180;28;20378;-71
2022/12/18 02:38:09;;;;;;;100.55;44.75;;;;;;;-5.02;100.00;102788.81;10381614;28;20058;-71
2022/12/18 02:43:11;;;;;;;90.40;37.72;;;;;;;-5.11;100.00;102777.69;10396048;28;20508;-70
2022/12/18 02:48:12;;;;;;;81.45;39.15;;;;;;;-5.18;100.00;102758.53;10379360;28;20374;-71
2022/12/18 02:53:29;;;;;;;91.68;42.85;;;;;;;-5.31;100.00;102755.44;10395794;28;20030;-71
2022/12/18 02:58:57;;;;;;;74.90;36.83;;;;;;;-5.31;100.00;102755.44;10377796;28;20492;-71
2022/12/18 03:04:01;;;;;;;83.60;38.50;;;;;;;-5.24;100.00;102743.75;10380008;28;20045;-71
2022/12/18 03:09:10;;;;;;;76.25;36.55;;;;;;;-5.14;100.00;102733.75;10379168;28;20036;-72
2022/12/18 03:14:11;;;;;;;105.85;45.72;;;;;;;-5.22;100.00;102728.72;10379097;28;20034;-71
2022/12/18 03:19:16;;;;;;;96.85;45.17;;;;;;;-5.34;100.00;102729.13;10394209;28;20040;-71
2022/12/18 03:24:17;;;;;;;89.47;43.42;;;;;;;-5.43;100.00;102725.00;10378183;28;20026;-71
2022/12/18 03:29:31;;;;;;;76.45;39.80;;;;;;;-5.42;100.00;102729.38;10380261;28;20042;-73
2022/12/18 03:34:33;;;;;;;47.20;22.70;;;;;;;-5.55;100.00;102721.88;10377822;28;20054;-72
2022/12/18 03:39:34;;;;;;;57.90;34.10;;;;;;;-5.43;100.00;102726.78;10395193;28;20061;-72
2022/12/18 03:44:54;;;;;;;63.70;27.42;;;;;;;-5.26;100.00;102731.53;10393695;28;20041;-72
2022/12/18 03:50:11;;;;;;;86.43;42.80;;;;;;;-5.25;100.00;102720.91;10378783;28;20034;-72
2022/12/18 03:55:11;;;;;;;65.47;26.00;;;;;;;-5.32;100.00;102735.22;10392398;28;20036;-72
2022/12/18 04:00:13;;;;;;;45.53;22.23;;;;;;;-5.46;100.00;102729.50;10377519;28;20030;-73
2022/12/18 04:05:13;;;;;;;74.60;36.50;;;;;;;-5.54;100.00;102719.22;10377457;28;20125;-72
2022/12/18 04:10:14;;;;;;;82.97;42.40;;;;;;;-5.67;100.00;102717.88;10377063;28;20450;-74
2022/12/18 04:15:14;;;;;;;76.15;35.40;;;;;;;-5.80;100.00;102735.00;10393669;28;20117;-72
2022/12/18 04:20:15;;;;;;;81.57;34.22;;;;;;;-5.90;100.00;102727.38;10380284;28;20045;-73
2022/12/18 04:25:15;;;;;;;68.10;35.50;;;;;;;-5.98;100.00;102734.66;10394380;28;20030;-72
2022/12/18 04:30:16;;;;;;;71.32;35.30;;;;;;;-6.09;100.00;102740.28;10360412;28;20120;-73
2022/12/18 04:35:16;;;;;;;72.50;35.25;;;;;;;-6.07;100.00;102734.94;10376003;28;20054;-72
2022/12/18 04:40:17;;;;;;;60.88;29.15;;;;;;;-6.06;100.00;102743.69;10376976;28;20080;-73
2022/12/18 04:45:17;;;;;;;57.05;33.30;;;;;;;-6.02;100.00;102753.28;10392731;28;20064;-73
2022/12/18 04:50:17;;;;;;;67.15;32.78;;;;;;;-6.07;100.00;102736.72;10374950;28;20034;-73
2022/12/18 04:55:18;;;;;;;24.25;14.50;;;;;;;-6.19;100.00;102738.81;10375939;28;20077;-74
2022/12/18 05:00:18;;;;;;;59.33;31.75;;;;;;;-6.16;100.00;102728.19;10375592;28;20041;-73
2022/12/18 05:05:19;;;;;;;69.85;32.65;;;;;;;-6.18;100.00;102729.13;10390873;28;20470;-74
2022/12/18 05:10:19;;;;;;;71.15;32.75;;;;;;;-6.31;100.00;102736.53;10375484;28;20089;-73
2022/12/18 05:15:19;;;;;;;76.90;33.90;;;;;;;-6.39;100.00;102739.34;10390928;28;20044;-73
2022/12/18 05:20:20;;;;;;;55.95;32.88;;;;;;;-6.37;100.00;102723.53;10373269;28;20037;-74
2022/12/18 05:25:20;;;;;;;64.80;36.47;;;;;;;-6.33;100.00;102728.66;10375091;28;20065;-74
2022/12/18 05:30:22;;;;;;;66.07;32.00;;;;;;;-6.32;100.00;102711.03;10373862;28;20034;-73
2022/12/18 05:35:22;;;;;;;50.90;34.00;;;;;;;-6.29;100.00;102715.38;10374070;28;20058;-75
2022/12/18 05:40:23;;;;;;;70.22;35.53;;;;;;;-6.30;100.00;102711.03;10374110;28;20069;-73
2022/12/18 05:45:23;;;;;;;54.88;32.03;;;;;;;-6.30;100.00;102705.75;10376061;28;20034;-74
2022/12/18 05:50:23;;;;;;;62.88;32.30;;;;;;;-6.35;100.00;102706.75;10372746;28;20045;-74
2022/12/18 05:55:24;;;;;;;62.42;28.67;;;;;;;-6.36;100.00;102717.31;10373143;28;20034;-74
2022/12/18 06:00:24;;;;;;;58.13;30.85;;;;;;;-6.38;100.00;102714.75;10373739;28;20038;-74
2022/12/18 06:05:25;;;;;;;48.97;30.15;;;;;;;-6.41;100.00;102713.97;10374367;28;20034;-74
2022/12/18 06:10:25;;;;;;;50.40;29.40;;;;;;;-6.41;100.00;102691.13;10373031;28;20029;-74
2022/12/18 06:15:26;;;;;;;41.05;22.45;;;;;;;-6.44;100.00;102677.16;10374321;28;20022;-74
2022/12/18 06:20:26;;;;;;;57.38;32.38;;;;;;;-6.38;100.00;102679.59;10374137;28;20478;-74
2022/12/18 06:25:26;;;;;;;52.20;28.55;;;;;;;-6.36;100.00;102683.06;10373292;28;20066;-75
2022/12/18 06:30:27;;;;;;;61.10;31.23;;;;;;;-6.45;100.00;102668.38;10376819;28;20045;-74
2022/12/18 06:35:27;;;;;;;63.55;30.92;;;;;;;-6.43;100.00;102673.63;10380854;28;20080;-75
2022/12/18 06:40:29;;;;;;;50.92;31.00;;;;;;;-6.42;100.00;102668.28;10381002;28;20053;-74
2022/12/18 06:45:29;;;;;;;61.22;31.90;;;;;;;-6.41;100.00;102656.00;10381925;28;20068;-74
2022/12/18 06:50:29;;;;;;;30.17;19.85;;;;;;;-6.40;100.00;102641.91;10379482;28;20474;-74
2022/12/18 06:55:30;;;;;;;44.92;26.00;;;;;;;-6.41;100.00;102641.03;10399161;28;20025;-75
2022/12/18 07:00:30;;;;;;;43.88;26.02;;;;;;;-6.48;100.00;102634.19;10380350;28;20069;-75
2022/12/18 07:05:31;;;;;;;34.13;21.02;;;;;;;-6.46;100.00;102631.53;10379459;28;20034;-75
2022/12/18 07:10:31;;;;;;;49.80;29.17;;;;;;;-6.51;100.00;102620.25;10378902;28;20124;-74
2022/12/18 07:15:31;;;;;;;39.75;22.40;;;;;;;-6.61;100.00;102591.53;10380004;28;20030;-75
2022/12/18 07:20:32;;;;;;;45.72;25.52;;;;;;;-6.56;100.00;102579.09;10380274;28;20053;-75
2022/12/18 07:25:36;;;;;;;62.60;30.80;;;;;;;-6.57;100.00;102556.31;10377728;28;20486;-75
2022/12/18 07:30:37;;;;;;;41.78;24.05;;;;;;;-6.53;100.00;102570.25;10394653;28;20156;-73
2022/12/18 07:35:37;;;;;;;54.95;27.05;;;;;;;-6.45;100.00;102562.09;10378355;28;20061;-74
2022/12/18 07:40:38;;;;;;;25.90;15.75;;;;;;;-6.45;100.00;102567.34;10377867;28;20157;-75
2022/12/18 07:45:38;;;;;;;44.97;24.52;;;;;;;-6.42;100.00;102577.81;10377113;28;20073;-74
2022/12/18 07:50:39;;;;;;;30.13;21.08;;;;;;;-6.33;100.00;102578.38;10338469;28;20050;-73
2022/12/18 07:55:43;;;;;;;42.65;23.83;;;;;;;-6.28;100.00;102562.44;10376170;28;20046;-75
2022/12/18 08:00:43;;;;;;;38.75;23.35;;;;;;;-6.17;100.00;102554.19;10379917;28;20048;-74
2022/12/18 08:05:44;;;;;;;33.35;21.90;;;;;;;-6.16;100.00;102564.69;10380836;28;20045;-73
2022/12/18 08:10:44;;;;;;;43.95;22.85;;;;;;;-6.22;100.00;102553.44;10378068;28;20062;-75
2022/12/18 08:15:44;;;;;;;27.80;19.45;;;;;;;-6.15;100.00;102555.00;10393094;28;20056;-74
2022/12/18 08:20:45;;;;;;;24.33;16.33;;;;;;;-6.06;100.00;102549.44;10359607;28;20108;-74
2022/12/18 08:25:45;;;;;;;34.25;20.35;;;;;;;-5.93;100.00;102544.63;10377550;28;20049;-74
2022/12/18 08:30:45;;;;;;;22.00;15.90;;;;;;;-5.89;100.00;102556.75;10376985;28;20065;-74
2022/12/18 08:35:46;;;;;;;29.95;20.00;;;;;;;-5.77;100.00;102569.53;10377906;28;20092;-74
2022/12/18 08:40:46;;;;;;;39.30;20.05;;;;;;;-5.65;100.00;102587.63;10378282;28;20026;-74
2022/12/18 08:45:47;;;;;;;26.10;18.95;;;;;;;-5.60;100.00;102595.34;10391379;28;20042;-74
2022/12/18 08:50:55;;;;;;;32.83;20.58;;;;;;;-5.48;100.00;102608.16;10374661;28;20034;-74
2022/12/18 08:55:56;;;;;;;36.88;23.52;;;;;;;-5.46;100.00;102622.13;10317847;28;20054;-74
2022/12/18 09:01:01;;;;;;;35.10;23.05;;;;;;;-5.35;100.00;102605.09;10376435;28;20044;-74
2022/12/18 09:06:02;;;;;;;34.22;22.75;;;;;;;-5.33;100.00;102587.41;10407531;28;20088;-74
2022/12/18 09:11:02;;;;;;;46.13;23.67;;;;;;;-5.29;100.00;102560.84;10377170;28;20112;-74
2022/12/18 09:16:03;;;;;;;30.00;16.65;;;;;;;-5.20;100.00;102557.00;10374879;28;20088;-74
2022/12/18 09:21:11;;;;;;;43.90;24.17;;;;;;;-5.19;100.00;102545.53;10375675;28;20038;-75
2022/12/18 09:26:11;;;;;;;45.50;26.98;;;;;;;-5.19;100.00;102543.75;10373711;28;20049;-75
2022/12/18 09:31:12;;;;;;;22.55;14.75;;;;;;;-5.12;100.00;102531.19;10406901;28;20041;-74
2022/12/18 09:36:14;;;;;;;33.83;21.85;;;;;;;-4.98;100.00;102557.09;10373263;28;20053;-75
2022/12/18 09:41:32;;;;;;;39.13;23.77;;;;;;;-4.79;100.00;102547.53;10390843;28;20034;-74
2022/12/18 09:46:35;;;;;;;38.30;25.65;;;;;;;-4.64;100.00;102561.97;10374398;28;20045;-73
2022/12/18 09:51:44;;;;;;;35.85;24.25;;;;;;;-4.65;100.00;102564.69;10356798;28;20026;-73
2022/12/18 09:56:44;;;;;;;31.63;23.05;;;;;;;-4.53;100.00;102551.88;10373395;28;20030;-74
2022/12/18 10:01:45;;;;;;;26.58;18.92;;;;;;;-4.46;100.00;102542.75;10389323;28;20045;-74
2022/12/18 10:07:05;;;;;;;43.65;25.38;;;;;;;-4.40;100.00;102544.31;10378390;28;20155;-74
2022/12/18 10:12:13;;;;;;;29.33;19.52;;;;;;;-4.29;100.00;102515.63;10365249;28;20034;-74
2022/12/18 10:17:27;;;;;;;40.97;23.70;;;;;;;-4.25;100.00;102508.44;10413075;28;20072;-74
2022/12/18 10:22:45;;;;;;;34.80;24.35;;;;;;;-4.23;100.00;102506.59;10399677;28;20030;-75
2022/12/18 10:27:46;;;;;;;39.78;20.40;;;;;;;-4.22;100.00;102503.03;10382288;28;20043;-74
2022/12/18 10:32:46;;;;;;;23.65;19.42;;;;;;;-4.11;100.00;102499.97;10414719;28;20053;-74
2022/12/18 10:38:00;;;;;;;42.35;23.27;;;;;;;-4.05;100.00;102497.91;10381595;28;20123;-74
2022/12/18 10:43:14;;;;;;;25.02;19.02;;;;;;;-3.87;100.00;102492.75;10413058;28;20065;-74
2022/12/18 10:48:21;;;;;;;46.05;24.88;;;;;;;-3.79;100.00;102494.16;10380580;28;20038;-74
2022/12/18 10:53:26;;;;;;;38.22;26.25;;;;;;;-3.69;100.00;102499.91;10396148;28;20038;-74
2022/12/18 10:58:32;;;;;;;36.70;24.47;;;;;;;-3.58;100.00;102495.00;10412738;28;20042;-74
2022/12/18 11:03:40;;;;;;;34.08;26.13;;;;;;;-3.47;100.00;102485.75;10395494;28;20030;-74
2022/12/18 11:08:42;;;;;;;36.65;23.88;;;;;;;-3.35;100.00;102478.13;10380133;28;20096;-74
2022/12/18 11:13:42;;;;;;;25.42;15.35;;;;;;;-3.28;100.00;102468.97;10412499;28;20034;-75
2022/12/18 11:18:42;;;;;;;28.25;18.77;;;;;;;-3.23;100.00;102478.47;10393637;28;20044;-74
2022/12/18 11:23:50;;;;;;;35.55;24.15;;;;;;;-3.28;100.00;102457.50;10377858;28;20089;-74
2022/12/18 11:28:52;;;;;;;28.23;19.58;;;;;;;-3.25;100.00;102449.44;10378962;28;20049;-74
2022/12/18 11:34:26;;;;;;;33.55;22.33;;;;;;;-3.20;100.00;102449.19;10380699;28;20423;-74
2022/12/18 11:39:46;;;;;;;30.58;20.73;;;;;;;-3.14;100.00;102436.53;10377329;28;20057;-74
2022/12/18 11:44:49;;;;;;;23.77;16.20;;;;;;;-3.11;100.00;102411.69;10411808;28;20034;-74
2022/12/18 11:49:49;;;;;;;24.25;16.67;;;;;;;-3.22;100.00;102385.69;10378501;28;20034;-73
2022/12/18 11:54:55;;;;;;;31.17;18.45;;;;;;;-3.18;100.00;102384.63;10377823;28;20089;-74
2022/12/18 12:00:15;;;;;;;12.88;10.18;;;;;;;-3.09;100.00;102386.84;10392664;28;20034;-74
2022/12/18 12:05:18;;;;;;;20.48;16.08;;;;;;;-3.00;100.00;102374.06;10375897;28;20485;-74
2022/12/18 12:10:40;;;;;;;36.15;20.08;;;;;;;-2.99;100.00;102375.81;10376473;28;20096;-74
2022/12/18 12:15:49;;;;;;;21.45;14.18;;;;;;;-2.92;100.00;102370.13;10377956;28;20033;-74
2022/12/18 12:21:23;;;;;;;25.77;17.63;;;;;;;-2.84;100.00;102357.38;10375344;28;20038;-74
2022/12/18 12:26:27;;;;;;;32.22;19.20;;;;;;;-2.80;100.00;102352.78;10390401;28;20084;-74
2022/12/18 12:31:30;;;;;;;23.58;14.95;;;;;;;-2.70;100.00;102354.03;10377138;28;20042;-74
2022/12/18 12:36:58;;;;;;;18.48;15.43;;;;;;;-2.70;100.00;102348.72;10376402;28;20100;-74
2022/12/18 12:47:24;;;;;;;16.35;14.48;;;;;;;-2.58;100.00;102334.84;10388959;28;20113;-74
2022/12/18 12:52:30;;;;;;;27.65;18.17;;;;;;;-2.49;100.00;102330.00;10374206;28;20026;-74
2022/12/18 12:57:34;;;;;;;35.78;19.70;;;;;;;-2.40;100.00;102318.94;10359184;28;20034;-74
2022/12/18 13:03:18;;;;;;;26.08;18.27;;;;;;;-2.40;100.00;102303.88;10406868;28;20084;-74
2022/12/18 13:08:26;;;;;;;25.50;18.77;;;;;;;-2.35;100.00;102298.34;10406630;28;20026;-73
2022/12/18 13:13:27;;;;;;;28.00;16.75;;;;;;;-2.37;100.00;102294.91;10408182;28;20022;-74
2022/12/18 13:18:28;;;;;;;27.40;19.50;;;;;;;-2.35;100.00;102285.94;10389908;28;20037;-74
2022/12/18 13:23:36;;;;;;;23.35;16.42;;;;;;;-2.34;100.00;102271.72;10373850;28;20085;-74
2022/12/18 13:28:45;;;;;;;23.08;18.02;;;;;;;-2.25;100.00;102259.78;10374671;28;20044;-73
2022/12/18 13:33:46;;;;;;;27.30;19.55;;;;;;;-2.21;100.00;102245.41;10374807;28;20490;-74
2022/12/18 13:38:46;;;;;;;29.77;18.77;;;;;;;-2.07;100.00;102239.38;10373874;28;20177;-75
2022/12/18 13:43:57;;;;;;;18.13;12.85;;;;;;;-2.00;100.00;102245.19;10406051;28;20085;-73
2022/12/18 13:49:00;;;;;;;39.95;24.00;;;;;;;-1.92;100.00;102235.00;10375949;28;20042;-71
2022/12/18 13:54:13;;;;;;;27.23;18.33;;;;;;;-1.86;100.00;102218.75;10374305;28;20080;-74
2022/12/18 13:59:25;;;;;;;22.25;16.27;;;;;;;-1.75;100.00;102212.84;10388522;28;20029;-75
2022/12/18 14:04:30;;;;;;;20.55;14.60;;;;;;;-1.75;100.00;102204.88;10388989;28;20045;-75
2022/12/18 14:09:34;;;;;;;30.03;14.10;;;;;;;-1.67;100.00;102207.94;10374196;28;20030;-74
2022/12/18 14:14:35;;;;;;;25.08;17.02;;;;;;;-1.70;100.00;102205.47;10388684;28;20355;-74
2022/12/18 14:19:35;;;;;;;23.75;18.80;;;;;;;-1.73;100.00;102206.50;10372357;28;20054;-72
2022/12/18 14:24:36;;;;;;;14.77;12.13;;;;;;;-1.70;100.00;102189.53;10375223;28;20030;-72
2022/12/18 14:29:36;;;;;;;18.58;11.30;;;;;;;-1.64;100.00;102173.25;10390871;28;20029;-72
2022/12/18 14:34:36;;;;;;;20.45;13.43;;;;;;;-1.65;100.00;102172.41;10373329;28;20045;-73
2022/12/18 14:39:37;;;;;;;23.70;17.42;;;;;;;-1.59;100.00;102143.78;10374859;28;20081;-73
2022/12/18 14:44:37;;;;;;;29.15;16.73;;;;;;;-1.57;100.00;102139.22;10373394;28;20034;-73
2022/12/18 14:49:38;;;;;;;23.17;16.33;;;;;;;-1.61;100.00;102143.00;10372739;28;20065;-72
2022/12/18 14:54:38;;;;;;;17.50;12.48;;;;;;;-1.59;100.00;102147.31;10396687;28;20033;-74
2022/12/18 14:59:39;;;;;;;25.10;16.38;;;;;;;-1.63;100.00;102137.78;10381302;28;20042;-74
2022/12/18 15:04:40;;;;;;;22.75;15.10;;;;;;;-1.66;100.00;102146.78;10378868;28;20034;-74
2022/12/18 15:09:41;;;;;;;23.38;14.98;;;;;;;-1.57;100.00;102155.16;10362376;28;20030;-72
2022/12/18 15:14:42;;;;;;;19.42;14.27;;;;;;;-1.55;100.00;102145.31;10411459;28;20038;-74
2022/12/18 15:19:43;;;;;;;10.70;8.93;;;;;;;-1.54;100.00;102145.22;10380640;28;20096;-73
2022/12/18 15:24:43;;;;;;;20.48;13.85;;;;;;;-1.50;100.00;102127.28;10394993;28;20112;-74
2022/12/18 15:29:44;;;;;;;27.95;15.15;;;;;;;-1.45;100.00;102138.53;10410764;28;20088;-74
2022/12/18 15:34:44;;;;;;;18.38;13.00;;;;;;;-1.44;100.00;102132.25;10394439;28;20057;-74
2022/12/18 15:39:44;;;;;;;17.63;13.65;;;;;;;-1.42;100.00;102123.25;10377341;28;20065;-74
2022/12/18 15:44:45;;;;;;;25.15;15.65;;;;;;;-1.40;100.00;102120.53;10410460;28;20104;-71
2022/12/18 15:49:45;;;;;;;18.63;14.82;;;;;;;-1.42;100.00;102109.13;10377253;28;20125;-73
2022/12/18 16:00:05;;;;;;;12.90;10.90;;;;;;;-1.36;100.00;102091.97;10376908;28;20037;-73
2022/12/18 16:05:19;;;;;;;28.25;17.05;;;;;;;-1.34;100.00;102087.41;10409430;28;20033;-73
2022/12/18 16:10:20;;;;;;;32.10;17.25;;;;;;;-1.34;100.00;102098.91;10407490;28;20042;-74
2022/12/18 16:15:20;;;;;;;25.98;16.67;;;;;;;-1.27;100.00;102092.28;10377340;28;20042;-73
2022/12/18 16:20:21;;;;;;;15.95;12.45;;;;;;;-1.25;100.00;102081.53;10359828;28;20037;-73
2022/12/18 16:25:24;;;;;;;21.08;12.48;;;;;;;-1.22;100.00;102066.25;10377042;28;20509;-73
2022/12/18 16:30:27;;;;;;;18.95;15.60;;;;;;;-1.23;100.00;102063.72;10408589;28;20041;-74
2022/12/18 16:35:27;;;;;;;22.15;16.02;;;;;;;-1.24;100.00;102070.84;10376359;28;20450;-73
2022/12/18 16:40:28;;;;;;;29.33;16.08;;;;;;;-1.19;100.00;102039.50;10378211;28;20065;-74
2022/12/18 16:45:32;;;;;;;19.23;14.40;;;;;;;-1.14;100.00;102041.03;10392044;28;20057;-73
2022/12/18 16:50:33;;;;;;;22.48;13.88;;;;;;;-1.15;100.00;102039.31;10375633;28;20038;-73
2022/12/18 16:55:33;;;;;;;27.45;13.35;;;;;;;-1.09;100.00;102041.59;10374059;28;20037;-73
2022/12/18 17:00:33;;;;;;;36.05;19.90;;;;;;;-1.06;100.00;102054.69;10375740;28;20092;-73
2022/12/18 17:05:34;;;;;;;13.38;10.40;;;;;;;-0.97;100.00;102038.19;10376156;28;20041;-73
2022/12/18 17:10:34;;;;;;;24.85;18.65;;;;;;;-0.90;100.00;102020.03;10374290;28;20042;-73
2022/12/18 17:15:35;;;;;;;25.42;16.75;;;;;;;-0.90;100.00;102007.59;10374892;28;20033;-75
2022/12/18 17:20:36;;;;;;;20.90;14.38;;;;;;;-0.88;100.00;102026.97;10376713;28;20041;-73
2022/12/18 17:25:39;;;;;;;23.67;14.77;;;;;;;-0.91;100.00;102021.00;10374998;28;20034;-74
2022/12/18 17:30:39;;;;;;;20.70;15.07;;;;;;;-0.88;100.00;102026.97;10374666;28;20048;-73
2022/12/18 17:35:39;;;;;;;21.80;16.20;;;;;;;-0.84;100.00;102027.66;10373926;28;20057;-73
2022/12/18 17:40:40;;;;;;;22.80;14.55;;;;;;;-0.77;100.00;102018.31;10374062;28;20038;-73
2022/12/18 17:45:41;;;;;;;23.58;16.30;;;;;;;-0.72;100.00;102017.09;10373924;28;20177;-73
2022/12/18 17:50:41;;;;;;;27.02;19.42;;;;;;;-0.73;100.00;102014.53;10374580;28;20104;-73
2022/12/18 17:55:42;;;;;;;32.65;18.98;;;;;;;-0.66;100.00;102015.84;10377278;28;20370;-73
2022/12/18 18:00:42;;;;;;;32.72;19.95;;;;;;;-0.67;100.00;102018.59;10375085;28;20501;-73
2022/12/18 18:05:42;;;;;;;31.70;21.67;;;;;;;-0.63;100.00;102022.78;10375215;28;20030;-74
2022/12/18 18:10:43;;;;;;;35.17;21.52;;;;;;;-0.66;100.00;102015.00;10374699;28;20065;-74
2022/12/18 18:15:43;;;;;;;24.70;14.60;;;;;;;-0.66;100.00;102022.97;10375184;28;20029;-73
2022/12/18 18:20:43;;;;;;;30.08;21.02;;;;;;;-0.63;100.00;102017.47;10373340;28;20343;-73
2022/12/18 18:25:45;;;;;;;28.52;22.80;;;;;;;-0.67;100.00;102023.91;10377553;28;20038;-73
2022/12/18 18:30:45;;;;;;;35.75;20.98;;;;;;;-0.75;100.00;102001.31;10383642;28;20049;-72
2022/12/18 18:35:46;;;;;;;30.48;19.48;;;;;;;-0.72;100.00;102011.78;10381677;28;20053;-72
2022/12/18 18:40:46;;;;;;;39.15;21.55;;;;;;;-0.66;100.00;102005.22;10382374;28;20466;-72
2022/12/18 18:45:47;;;;;;;21.63;17.50;;;;;;;-0.65;100.00;101995.44;10380815;28;20113;-72
2022/12/18 18:51:01;;;;;;;32.22;22.33;;;;;;;-0.62;100.00;101995.22;10413245;28;20044;-72
2022/12/18 18:56:02;;;;;;;26.48;18.98;;;;;;;-0.66;100.00;101997.22;10380603;28;20043;-72
2022/12/18 19:01:04;;;;;;;27.45;19.50;;;;;;;-0.67;100.00;101992.00;10380203;28;20116;-71
2022/12/18 19:06:05;;;;;;;36.58;17.08;;;;;;;-0.63;100.00;101996.19;10380828;28;20061;-71
2022/12/18 19:13:19;;;;;;;35.65;24.60;;;;;;;-0.68;100.00;101991.16;10395415;28;20544;-71
2022/12/18 19:16:30;;;;;;;27.95;20.92;;;;;;;-0.60;100.00;101996.84;10404863;28;20096;-71
2022/12/18 19:21:31;;;;;;;30.73;19.73;;;;;;;-0.59;100.00;102003.00;10411548;28;20417;-70
2022/12/18 19:26:31;;;;;;;31.08;22.50;;;;;;;-0.58;100.00;101991.41;10379487;28;20046;-70
2022/12/18 19:31:32;;;;;;;35.75;21.10;;;;;;;-0.58;100.00;101970.97;10393909;28;20034;-69
2022/12/18 19:36:35;;;;;;;39.90;24.13;;;;;;;-0.59;100.00;101979.06;10394483;28;20157;-70
2022/12/18 19:41:35;;;;;;;41.55;27.42;;;;;;;-0.55;100.00;101980.56;10379253;28;20033;-71
2022/12/18 19:46:36;;;;;;;31.50;22.60;;;;;;;-0.55;100.00;101964.59;10378810;28;20065;-71
2022/12/18 19:51:36;;;;;;;39.53;22.40;;;;;;;-0.54;100.00;101956.53;10379134;28;20117;-71
2022/12/18 19:56:37;;;;;;;39.05;24.73;;;;;;;-0.56;100.00;101977.06;10378010;28;20084;-71
2022/12/18 20:01:37;;;;;;;27.63;23.35;;;;;;;-0.50;100.00;101974.00;10377972;28;20089;-71
2022/12/18 20:06:51;;;;;;;42.70;25.90;;;;;;;-0.54;100.00;101961.03;10409319;28;20558;-71
2022/12/18 20:11:51;;;;;;;41.42;25.40;;;;;;;-0.55;100.00;101951.31;10379075;28;20189;-70
2022/12/18 20:16:52;;;;;;;36.42;24.58;;;;;;;-0.53;100.00;101936.09;10377689;28;20347;-70
2022/12/18 20:21:52;;;;;;;29.63;21.42;;;;;;;-0.48;100.00;101931.31;10376810;28;20042;-69
2022/12/18 20:26:53;;;;;;;37.58;28.30;;;;;;;-0.47;100.00;101922.41;10375944;28;20042;-69
2022/12/18 20:31:53;;;;;;;38.53;27.60;;;;;;;-0.52;100.00;101916.53;10409265;28;20081;-70
2022/12/18 20:36:54;;;;;;;44.28;29.42;;;;;;;-0.52;100.00;101914.72;10376550;28;20058;-70
2022/12/18 20:41:55;;;;;;;56.85;33.92;;;;;;;-0.51;100.00;101919.09;10375618;28;20464;-70
2022/12/18 20:46:56;;;;;;;38.75;26.98;;;;;;;-0.44;100.00;101911.56;10377606;28;20161;-69
2022/12/18 20:51:57;;;;;;;28.60;20.88;;;;;;;-0.47;100.00;101909.09;10376567;28;20038;-70
2022/12/18 20:56:57;;;;;;;47.97;30.77;;;;;;;-0.49;100.00;101890.56;10407509;28;20113;-70
2022/12/18 21:01:57;;;;;;;44.78;31.77;;;;;;;-0.45;100.00;101885.88;10375798;28;20038;-70
2022/12/18 21:06:58;;;;;;;46.58;29.92;;;;;;;-0.43;100.00;101870.69;10376144;28;20450;-70
2022/12/18 21:17:17;;;;;;;49.28;33.13;;;;;;;-0.42;100.00;101869.72;10374707;28;20046;-70
2022/12/18 21:22:18;;;;;;;43.20;29.60;;;;;;;-0.41;100.00;101850.16;10391442;28;20046;-70
2022/12/18 21:27:18;;;;;;;55.42;30.58;;;;;;;-0.38;100.00;101841.97;10389861;28;20068;-70
2022/12/18 21:32:18;;;;;;;41.88;25.20;;;;;;;-0.33;100.00;101825.69;10374586;28;20370;-71
2022/12/18 21:37:19;;;;;;;53.75;35.05;;;;;;;-0.28;100.00;101813.78;10375227;28;20061;-71
2022/12/18 21:47:38;;;;;;;70.93;35.75;;;;;;;-0.21;100.00;101794.72;10401531;28;20034;-71
2022/12/18 21:52:39;;;;;;;61.58;34.45;;;;;;;-0.16;100.00;101811.22;10406456;28;20041;-73
2022/12/18 21:57:39;;;;;;;59.55;35.05;;;;;;;-0.12;100.00;101799.41;10374568;28;20038;-72
2022/12/18 22:02:39;;;;;;;58.03;37.15;;;;;;;-0.07;100.00;101795.44;10379281;28;20069;-71
2022/12/18 22:07:40;;;;;;;51.97;33.78;;;;;;;0.00;100.00;101771.94;10397248;28;20041;-71
2022/12/18 22:12:40;;;;;;;44.67;31.75;;;;;;;0.01;100.00;101770.97;10382233;28;20470;-71
2022/12/18 22:17:41;;;;;;;51.55;35.60;;;;;;;0.10;100.00;101769.47;10364470;28;20033;-71
2022/12/18 22:22:41;;;;;;;58.78;30.50;;;;;;;0.17;100.00;101760.94;10382225;28;20478;-71
2022/12/18 22:27:42;;;;;;;55.80;36.35;;;;;;;0.24;100.00;101745.38;10413654;28;20397;-70
2022/12/18 22:32:42;;;;;;;59.58;33.97;;;;;;;0.32;100.00;101747.47;10380910;28;20076;-70
2022/12/18 22:37:42;;;;;;;56.10;30.70;;;;;;;0.41;100.00;101736.16;10381373;28;20061;-70
2022/12/18 22:42:43;;;;;;;47.30;28.67;;;;;;;0.46;100.00;101718.88;10380744;28;20056;-70
2022/12/18 22:47:43;;;;;;;54.05;33.50;;;;;;;0.53;100.00;101713.09;10382070;28;20093;-71
2022/12/18 22:52:44;;;;;;;41.47;25.20;;;;;;;0.62;100.00;101709.75;10381057;28;20034;-70